METAR Data
IDs: Format: Raw Decoded Include TAF

Data at: 1019 UTC 19 Nov 2018

METAR for:KSPB (Scappoose Ind Airpar, OR, US)
Text:KSPB 190953Z AUTO 00000KT 10SM CLR 01/M01 A3016 RMK AO2 SLP211 T00111011
Temperature: 1.1°C ( 34°F)
Dewpoint: -1.1°C ( 30°F) [RH = 85%]
Pressure (altimeter):30.16 inches Hg (1021.4 mb) [Sea level pressure: 1021.1 mb]
Winds:calm
Visibility:10 or more sm (16+ km)
Ceiling:at least 12,000 feet AGL
Clouds:sky clear below 12,000 feet AGL
QC Flag:automated observation with no human augmentation